Time;durP1;ratioP1;P1;durP2;ratioP2;P2;SDS_P1;SDS_P2;PMS_P1;PMS_P2;Temp;Humidity;BMP_temperature;BMP_pressure;BME280_temperature;BME280_humidity;BME280_pressure;Samples;Min_cycle;Max_cycle;Signal;HPM_P1;HPM_P2
2021/03/21 00:00:48;;;;;;;2.53;1.63;;;;;;;3.06;52.73;101331.56;5033292;28;20670;-69
2021/03/21 00:03:15;;;;;;;3.95;2.40;;;;;;;3.10;51.42;101320.03;5034716;28;20047;-71
2021/03/21 00:05:41;;;;;;;4.28;2.65;;;;;;;3.17;50.59;101321.38;5033716;28;20536;-69
2021/03/21 00:08:27;;;;;;;3.67;1.83;;;;;;;3.19;51.25;101316.03;5033743;28;20049;-69
2021/03/21 00:11:04;;;;;;;4.30;2.35;;;;;;;3.26;50.02;101311.31;5033371;28;20041;-69
2021/03/21 00:13:29;;;;;;;3.55;2.10;;;;;;;3.30;49.76;101298.00;5034195;28;20060;-69
2021/03/21 00:15:57;;;;;;;2.90;1.80;;;;;;;3.26;51.38;101306.09;5032898;28;20033;-69
2021/03/21 00:18:26;;;;;;;3.65;2.17;;;;;;;3.26;50.46;101300.88;5034018;28;20493;-69
2021/03/21 00:20:51;;;;;;;4.80;2.67;;;;;;;3.10;54.53;101304.34;5031987;28;20069;-69
2021/03/21 00:23:17;;;;;;;4.22;2.45;;;;;;;3.04;53.73;101306.44;5031270;28;20497;-70
2021/03/21 00:25:43;;;;;;;4.38;2.35;;;;;;;3.05;52.76;101306.38;5033035;28;20069;-69
2021/03/21 00:28:12;;;;;;;4.57;2.80;;;;;;;3.21;50.47;101300.28;5030677;28;20064;-69
2021/03/21 00:30:41;;;;;;;4.90;2.72;;;;;;;3.27;50.11;101298.19;5031103;28;20077;-69
2021/03/21 00:33:09;;;;;;;5.68;2.83;;;;;;;3.31;49.71;101288.38;5032278;28;20037;-69
2021/03/21 00:35:35;;;;;;;5.38;2.70;;;;;;;3.33;49.21;101289.16;5032590;28;20033;-69
2021/03/21 00:38:04;;;;;;;4.72;3.10;;;;;;;3.40;48.61;101287.88;5032628;28;20045;-69
2021/03/21 00:40:30;;;;;;;4.13;2.63;;;;;;;3.38;48.18;101274.91;5032326;28;20037;-69
2021/03/21 00:42:56;;;;;;;4.70;2.20;;;;;;;3.32;48.31;101277.03;5033237;28;20445;-69
2021/03/21 00:45:23;;;;;;;3.80;2.30;;;;;;;3.37;47.65;101270.59;5033736;28;20025;-69
2021/03/21 00:47:50;;;;;;;3.53;1.85;;;;;;;3.34;48.21;101281.22;5032703;28;20108;-70
2021/03/21 00:50:20;;;;;;;4.25;2.50;;;;;;;3.29;48.21;101272.81;5031694;28;20432;-69
2021/03/21 00:52:45;;;;;;;5.75;2.22;;;;;;;3.32;47.96;101264.78;5034140;28;20393;-70
2021/03/21 00:55:12;;;;;;;5.22;2.88;;;;;;;3.40;47.91;101264.34;5032615;28;20144;-69
2021/03/21 00:57:38;;;;;;;5.18;2.97;;;;;;;3.45;47.19;101259.69;5032328;28;20566;-69
2021/03/21 01:00:18;;;;;;;5.70;2.50;;;;;;;3.47;47.28;101252.59;5033672;28;20123;-69
2021/03/21 01:02:44;;;;;;;12.68;2.70;;;;;;;3.47;47.33;101247.38;5032871;28;20055;-69
2021/03/21 01:05:13;;;;;;;4.88;2.67;;;;;;;3.50;46.76;101243.75;5032510;28;20084;-69
2021/03/21 01:07:38;;;;;;;4.28;2.28;;;;;;;3.49;46.69;101242.06;5033062;28;20033;-70
2021/03/21 01:10:04;;;;;;;4.93;2.53;;;;;;;3.48;46.65;101238.63;5033211;28;20077;-69
2021/03/21 01:12:30;;;;;;;4.15;2.40;;;;;;;3.53;46.21;101235.75;5034175;28;20051;-70
2021/03/21 01:14:56;;;;;;;3.92;2.30;;;;;;;3.51;44.93;101238.44;5032222;28;20037;-70
2021/03/21 01:17:22;;;;;;;3.53;2.33;;;;;;;3.45;45.42;101237.94;5032172;28;20135;-70
2021/03/21 01:19:50;;;;;;;4.75;2.33;;;;;;;3.51;46.22;101229.75;5032479;28;20420;-70
2021/03/21 01:22:16;;;;;;;4.22;2.40;;;;;;;3.56;45.61;101225.94;5032022;28;20189;-70
2021/03/21 01:24:44;;;;;;;5.47;2.60;;;;;;;3.58;45.34;101218.84;5031776;28;20125;-70
2021/03/21 01:27:10;;;;;;;3.83;2.33;;;;;;;3.64;45.03;101216.78;5031482;28;20368;-69
2021/03/21 01:29:37;;;;;;;4.10;2.40;;;;;;;3.63;44.98;101220.34;5032670;28;20099;-70
2021/03/21 01:32:08;;;;;;;4.43;2.75;;;;;;;3.62;45.06;101211.63;5036329;28;20033;-70
2021/03/21 01:34:34;;;;;;;3.80;2.47;;;;;;;3.62;45.51;101211.63;5031838;28;20036;-70
2021/03/21 01:37:01;;;;;;;4.05;2.40;;;;;;;3.54;46.12;101206.88;5030903;28;20040;-70
2021/03/21 01:39:29;;;;;;;5.43;3.00;;;;;;;3.56;46.39;101206.78;5032973;28;20553;-70
2021/03/21 01:42:00;;;;;;;4.25;2.35;;;;;;;3.56;46.53;101201.56;5031094;28;20506;-70
2021/03/21 01:44:27;;;;;;;5.00;2.55;;;;;;;3.53;46.83;101206.97;5030754;28;20517;-70
2021/03/21 01:47:03;;;;;;;3.40;2.13;;;;;;;3.52;46.97;101208.72;5031509;28;20041;-70
2021/03/21 01:49:37;;;;;;;5.00;2.30;;;;;;;3.48;47.25;101202.00;5031835;28;20072;-70
2021/03/21 01:52:07;;;;;;;5.78;2.67;;;;;;;3.54;46.90;101199.03;5030886;28;20049;-70
2021/03/21 01:54:34;;;;;;;6.82;2.70;;;;;;;3.54;46.99;101193.78;5032163;28;20079;-70
2021/03/21 01:57:01;;;;;;;3.85;2.40;;;;;;;3.48;47.18;101191.56;5031444;28;20484;-70
2021/03/21 01:59:32;;;;;;;3.42;1.98;;;;;;;3.49;47.47;101188.00;5034034;28;20059;-70
2021/03/21 02:02:04;;;;;;;4.82;2.83;;;;;;;3.53;47.87;101186.06;5033232;28;20099;-70
2021/03/21 02:04:31;;;;;;;4.97;2.53;;;;;;;3.49;48.06;101189.78;5032253;28;20072;-70
2021/03/21 02:07:12;;;;;;;5.63;2.83;;;;;;;3.50;47.85;101173.97;5032289;28;20045;-70
2021/03/21 02:09:57;;;;;;;;;;;;;;;3.51;47.86;101180.91;5031956;28;20405;-70
2021/03/21 02:12:54;;;;;;;5.50;3.30;;;;;;;3.52;47.87;101174.72;5032070;28;20009;-70
2021/03/21 02:15:32;;;;;;;4.15;2.72;;;;;;;3.52;47.99;101179.97;5031742;28;20049;-70
2021/03/21 02:18:24;;;;;;;4.18;2.47;;;;;;;3.50;48.03;101175.75;5046084;28;20073;-70
2021/03/21 02:20:50;;;;;;;4.47;2.70;;;;;;;3.49;47.96;101174.09;5029911;28;20094;-70
2021/03/21 02:23:51;;;;;;;5.32;2.97;;;;;;;3.49;48.56;101167.09;5035709;28;20096;-70
2021/03/21 02:26:50;;;;;;;4.35;2.70;;;;;;;3.43;48.61;101175.28;5032168;28;20033;-70
2021/03/21 02:29:34;;;;;;;5.25;3.00;;;;;;;3.48;48.46;101169.78;5029458;28;20509;-70
2021/03/21 02:32:06;;;;;;;5.05;3.05;;;;;;;3.41;48.70;101161.47;5029753;28;20041;-70
2021/03/21 02:34:50;;;;;;;5.05;2.83;;;;;;;3.46;48.65;101163.81;5051468;28;20040;-70
2021/03/21 02:37:42;;;;;;;5.60;2.78;;;;;;;3.43;48.86;101156.13;5035858;28;20056;-70
2021/03/21 02:40:34;;;;;;;5.45;3.13;;;;;;;3.46;48.95;101154.19;4992495;28;20041;-70
2021/03/21 02:43:22;;;;;;;4.88;2.65;;;;;;;3.42;49.52;101147.47;5040596;28;20048;-70
2021/03/21 02:45:52;;;;;;;5.32;2.92;;;;;;;3.39;49.49;101147.66;5028198;28;20510;-70
2021/03/21 02:48:30;;;;;;;5.20;2.70;;;;;;;3.40;49.66;101144.91;5034486;28;20455;-69
2021/03/21 02:51:01;;;;;;;4.88;2.80;;;;;;;3.41;49.83;101143.16;5036630;28;20041;-70
2021/03/21 02:53:29;;;;;;;5.20;2.83;;;;;;;3.40;50.44;101144.91;5033891;28;20034;-70
2021/03/21 02:56:03;;;;;;;4.03;2.30;;;;;;;3.41;49.98;101151.03;5036319;28;20421;-70
2021/03/21 02:58:52;;;;;;;4.20;2.60;;;;;;;3.46;49.70;101146.34;5034803;28;20036;-70
2021/03/21 03:01:27;;;;;;;4.80;2.80;;;;;;;3.48;49.80;101144.50;5036596;28;20495;-70
2021/03/21 03:04:00;;;;;;;4.18;2.70;;;;;;;3.47;49.90;101140.19;5034104;28;20029;-70
2021/03/21 03:06:49;;;;;;;5.22;3.33;;;;;;;3.46;49.98;101138.50;5035627;28;20048;-70
2021/03/21 03:09:26;;;;;;;4.88;2.88;;;;;;;3.46;49.95;101145.53;5033435;28;20037;-70
2021/03/21 03:11:56;;;;;;;5.55;3.08;;;;;;;3.44;49.97;101137.75;5033797;28;20046;-69
2021/03/21 03:14:35;;;;;;;6.68;3.22;;;;;;;3.47;50.23;101139.34;5033436;28;20405;-70
2021/03/21 03:17:05;;;;;;;5.05;3.13;;;;;;;3.46;50.27;101129.84;5029866;28;20136;-70
2021/03/21 03:19:54;;;;;;;5.57;3.45;;;;;;;3.48;50.56;101128.81;5033379;28;20057;-70
2021/03/21 03:22:23;;;;;;;6.32;3.30;;;;;;;3.46;50.65;101130.66;5024182;28;20048;-70
2021/03/21 03:25:03;;;;;;;5.30;3.58;;;;;;;3.45;50.69;101121.13;5033233;28;20121;-70
2021/03/21 03:27:45;;;;;;;5.75;3.45;;;;;;;3.42;50.94;101125.72;5050800;28;20049;-70
2021/03/21 03:30:16;;;;;;;5.68;3.30;;;;;;;3.40;50.79;101116.16;5034813;28;20038;-70
2021/03/21 03:32:43;;;;;;;6.47;3.80;;;;;;;3.40;50.79;101112.72;5033727;28;20526;-70
2021/03/21 03:35:14;;;;;;;8.32;3.83;;;;;;;3.36;51.09;101108.59;5032437;28;20037;-70
2021/03/21 03:37:40;;;;;;;6.90;3.40;;;;;;;3.36;51.01;101106.84;5035143;28;20052;-70
2021/03/21 03:40:09;;;;;;;5.00;3.08;;;;;;;3.31;51.34;101100.19;5034561;28;20041;-70
2021/03/21 03:42:46;;;;;;;5.30;3.25;;;;;;;3.33;51.19;101091.31;5033404;28;20044;-70
2021/03/21 03:45:21;;;;;;;6.00;3.30;;;;;;;3.32;51.46;101086.22;5032477;28;20041;-70
2021/03/21 03:48:02;;;;;;;6.38;3.65;;;;;;;3.31;51.84;101089.72;5032002;28;20044;-70
2021/03/21 03:51:10;;;;;;;6.07;3.08;;;;;;;3.27;52.41;101081.25;5032315;28;20052;-70
2021/03/21 03:54:30;;;;;;;4.78;3.38;;;;;;;3.30;52.41;101075.00;4963738;28;20035;-70
2021/03/21 03:57:09;;;;;;;5.65;3.30;;;;;;;3.30;52.38;101070.59;4972909;28;20050;-70
2021/03/21 03:59:53;;;;;;;6.00;3.13;;;;;;;3.30;52.20;101068.00;5033038;28;20513;-70
2021/03/21 04:02:39;;;;;;;5.88;3.47;;;;;;;3.27;52.13;101064.72;5048206;28;20529;-70
2021/03/21 04:05:15;;;;;;;7.72;3.75;;;;;;;3.28;52.33;101062.00;5031030;28;20076;-70
2021/03/21 04:07:45;;;;;;;5.50;3.53;;;;;;;3.22;52.42;101053.69;5033834;28;20420;-70
2021/03/21 04:10:20;;;;;;;5.70;3.30;;;;;;;3.25;52.00;101061.38;5035502;28;20079;-70
2021/03/21 04:12:55;;;;;;;6.07;3.17;;;;;;;3.21;52.09;101072.94;5034876;28;20124;-70
2021/03/21 04:15:26;;;;;;;5.95;3.08;;;;;;;3.25;52.03;101069.22;5033763;28;20033;-70
2021/03/21 04:18:09;;;;;;;6.95;3.45;;;;;;;3.25;52.01;101077.03;5034447;28;20038;-70
2021/03/21 04:20:39;;;;;;;4.70;2.88;;;;;;;3.29;51.74;101086.38;5031425;28;20401;-70
2021/03/21 04:23:13;;;;;;;5.40;2.80;;;;;;;3.24;51.91;101080.56;5034892;28;20033;-70
2021/03/21 04:25:44;;;;;;;5.18;2.92;;;;;;;3.30;51.65;101072.38;5036283;28;20276;-71
2021/03/21 04:28:23;;;;;;;4.18;2.60;;;;;;;3.25;52.36;101082.28;5032824;28;20041;-70
2021/03/21 04:30:53;;;;;;;4.60;2.80;;;;;;;3.29;52.09;101073.28;5032669;28;20033;-70
2021/03/21 04:33:24;;;;;;;4.72;2.88;;;;;;;3.30;52.15;101072.38;5034007;28;20053;-70
2021/03/21 04:35:55;;;;;;;5.70;3.00;;;;;;;3.30;52.52;101072.38;5032326;28;20080;-70
2021/03/21 04:38:25;;;;;;;;;;;;;;;3.27;53.06;101070.78;5034439;28;20447;-71
2021/03/21 04:40:51;;;;;;;4.55;2.75;;;;;;;3.21;52.90;101083.38;5034868;28;19923;-70
2021/03/21 04:43:46;;;;;;;3.92;2.38;;;;;;;3.21;53.05;101088.59;5034310;28;20501;-70
2021/03/21 04:46:24;;;;;;;4.50;3.00;;;;;;;3.28;52.58;101080.31;5031542;28;20036;-70
2021/03/21 04:48:52;;;;;;;4.78;2.60;;;;;;;3.29;52.09;101081.13;5031788;28;20033;-70
2021/03/21 04:51:28;;;;;;;4.80;2.78;;;;;;;3.30;52.18;101069.78;5034635;28;20029;-70
2021/03/21 04:53:58;;;;;;;4.45;2.53;;;;;;;3.30;52.25;101078.44;5031896;28;20033;-70
2021/03/21 04:56:36;;;;;;;5.00;2.90;;;;;;;3.37;52.33;101077.16;5032726;28;20528;-70
2021/03/21 04:59:17;;;;;;;5.05;2.90;;;;;;;3.38;52.09;101068.38;5035577;28;20041;-70
2021/03/21 05:01:52;;;;;;;;;;;;;;;3.39;52.43;101066.59;5034553;28;20470;-70
2021/03/21 05:04:23;;;;;;;5.28;2.60;;;;;;;3.30;52.50;101057.53;5034352;28;19916;-70
2021/03/21 05:06:52;;;;;;;3.55;2.65;;;;;;;3.30;52.44;101049.69;5033349;28;20120;-70
2021/03/21 05:09:28;;;;;;;6.18;2.80;;;;;;;3.37;52.28;101052.78;5031533;28;20033;-70
2021/03/21 05:12:11;;;;;;;3.80;2.50;;;;;;;3.28;52.81;101045.50;5033838;28;20033;-70
2021/03/21 05:14:51;;;;;;;4.03;2.50;;;;;;;3.29;52.83;101047.16;5029840;28;20045;-70
2021/03/21 05:17:36;;;;;;;4.15;2.72;;;;;;;3.32;52.78;101055.66;5034850;28;20064;-70
2021/03/21 05:20:15;;;;;;;3.78;2.30;;;;;;;3.32;52.78;101055.66;5032293;28;20435;-70
2021/03/21 05:22:46;;;;;;;5.60;2.95;;;;;;;3.37;52.62;101051.00;5033976;28;20060;-70
2021/03/21 05:25:17;;;;;;;4.25;2.70;;;;;;;3.38;52.63;101049.22;5031892;28;20146;-70
2021/03/21 05:27:47;;;;;;;4.10;2.65;;;;;;;3.39;52.72;101054.38;5033796;28;20163;-70
2021/03/21 05:30:25;;;;;;;3.85;2.35;;;;;;;3.30;53.33;101054.09;5031084;28;20386;-70
2021/03/21 05:32:51;;;;;;;5.68;2.83;;;;;;;3.31;52.59;101054.00;5032692;28;20517;-70
2021/03/21 05:35:36;;;;;;;5.07;2.70;;;;;;;3.36;52.78;101051.09;5033226;28;20489;-70
2021/03/21 05:38:16;;;;;;;3.28;2.17;;;;;;;3.33;53.02;101051.28;5033268;28;20125;-70
2021/03/21 05:41:09;;;;;;;5.03;3.03;;;;;;;3.37;53.13;101050.16;5015076;28;20045;-70
2021/03/21 05:44:08;;;;;;;4.10;2.42;;;;;;;3.36;53.01;101056.31;5012606;28;20038;-70
2021/03/21 05:47:01;;;;;;;4.50;2.42;;;;;;;3.39;52.80;101064.00;5031718;28;20044;-70
2021/03/21 05:49:54;;;;;;;3.92;2.50;;;;;;;3.26;55.36;101060.41;5037307;28;20025;-71
2021/03/21 05:52:44;;;;;;;3.67;2.40;;;;;;;3.19;55.56;101057.31;5021584;28;20397;-70
2021/03/21 05:55:46;;;;;;;2.95;1.60;;;;;;;3.22;55.36;101056.28;5019153;28;20481;-69
2021/03/21 05:58:49;;;;;;;3.60;1.92;;;;;;;3.24;55.39;101057.88;5031852;28;20056;-70
2021/03/21 06:01:42;;;;;;;4.43;2.47;;;;;;;3.34;53.76;101056.44;5036470;28;20108;-70
2021/03/21 06:04:25;;;;;;;3.63;1.98;;;;;;;3.40;53.76;101058.66;5035952;28;20501;-70
2021/03/21 06:07:28;;;;;;;3.75;2.42;;;;;;;3.52;53.45;101062.31;5036979;28;20042;-70
2021/03/21 06:09:56;;;;;;;5.32;2.78;;;;;;;3.50;53.20;101060.72;5035762;28;20045;-70
2021/03/21 06:12:40;;;;;;;4.30;2.53;;;;;;;3.53;53.19;101057.94;5036703;28;20057;-70
2021/03/21 06:15:06;;;;;;;4.63;2.72;;;;;;;3.53;53.12;101063.16;5033965;28;20086;-69
2021/03/21 06:17:40;;;;;;;5.00;2.63;;;;;;;3.55;53.58;101058.66;5033689;28;20256;-70
2021/03/21 06:20:35;;;;;;;4.05;2.28;;;;;;;3.60;53.07;101048.78;5035057;28;20469;-70
2021/03/21 06:23:26;;;;;;;4.03;2.10;;;;;;;3.64;53.21;101055.47;5038121;28;20033;-69
2021/03/21 06:26:15;;;;;;;5.38;2.60;;;;;;;3.68;53.13;101048.31;5035696;28;20529;-70
2021/03/21 06:29:02;;;;;;;5.50;2.80;;;;;;;3.71;52.52;101037.66;5004121;28;20052;-70
2021/03/21 06:31:53;;;;;;;6.38;3.03;;;;;;;3.73;52.61;101020.09;5015856;28;20037;-70
2021/03/21 06:34:33;;;;;;;4.10;2.72;;;;;;;3.86;52.66;101000.06;5018224;28;20517;-70
2021/03/21 06:37:30;;;;;;;4.57;3.08;;;;;;;3.95;52.57;101004.72;5015377;28;20612;-70
2021/03/21 06:40:26;;;;;;;4.80;2.75;;;;;;;3.96;52.59;101001.16;5018869;28;20040;-70
2021/03/21 06:43:25;;;;;;;6.43;3.08;;;;;;;3.93;52.86;101011.84;5018993;28;20042;-70
2021/03/21 06:46:18;;;;;;;4.20;2.50;;;;;;;3.97;52.39;101015.91;5025661;28;20436;-70
2021/03/21 06:49:30;;;;;;;3.95;2.25;;;;;;;4.02;52.47;101016.47;5035262;28;20492;-70
2021/03/21 06:52:10;;;;;;;3.47;2.20;;;;;;;4.06;52.29;101024.16;5036047;28;20069;-69
2021/03/21 06:54:51;;;;;;;5.40;2.95;;;;;;;4.18;52.13;101021.56;5036112;28;20072;-70
2021/03/21 06:57:34;;;;;;;5.57;2.63;;;;;;;4.28;51.71;101013.13;5036415;28;20030;-70
2021/03/21 07:00:06;;;;;;;4.57;2.80;;;;;;;4.36;51.45;101016.06;5036503;28;20100;-69
2021/03/21 07:03:02;;;;;;;4.70;2.30;;;;;;;4.39;51.62;101011.50;5034622;28;20052;-70
2021/03/21 07:06:07;;;;;;;5.15;2.70;;;;;;;4.42;51.26;101006.06;5034649;28;20405;-70
2021/03/21 07:08:42;;;;;;;5.10;2.75;;;;;;;4.42;51.54;100994.75;5033228;28;20376;-70
2021/03/21 07:11:46;;;;;;;5.50;2.88;;;;;;;4.42;51.54;100994.75;5035518;28;20051;-70
2021/03/21 07:14:48;;;;;;;4.75;2.78;;;;;;;4.39;51.77;100989.72;5036508;28;20068;-71
2021/03/21 07:17:20;;;;;;;4.63;2.95;;;;;;;4.34;50.91;100997.00;5033919;28;20448;-70
2021/03/21 07:20:06;;;;;;;5.93;2.55;;;;;;;4.30;51.41;100991.16;5029928;28;20167;-71
2021/03/21 07:22:55;;;;;;;6.30;2.60;;;;;;;4.17;51.69;100993.72;5034739;28;20045;-71
2021/03/21 07:25:35;;;;;;;5.32;2.50;;;;;;;4.19;52.29;101002.28;5034318;28;20095;-71
2021/03/21 07:28:03;;;;;;;7.47;2.50;;;;;;;4.20;51.88;101004.00;5035081;28;20051;-71
2021/03/21 07:30:41;;;;;;;4.05;2.55;;;;;;;4.21;52.17;101003.03;5035597;28;20045;-70
2021/03/21 07:33:21;;;;;;;5.32;2.83;;;;;;;4.30;51.76;100992.94;5034081;28;20040;-71
2021/03/21 07:36:18;;;;;;;5.10;2.65;;;;;;;4.31;51.57;100979.72;5032716;28;20039;-71
2021/03/21 07:39:02;;;;;;;5.55;2.85;;;;;;;4.31;51.60;100971.88;5031882;28;20053;-71
2021/03/21 07:42:02;;;;;;;4.05;2.70;;;;;;;4.32;51.73;100981.41;5034300;28;20033;-71
2021/03/21 07:44:42;;;;;;;5.55;3.22;;;;;;;4.35;51.71;100981.22;5034549;28;20044;-71
2021/03/21 07:47:13;;;;;;;6.80;3.10;;;;;;;4.36;51.53;100982.91;5034340;28;20432;-71
2021/03/21 07:50:02;;;;;;;5.93;3.10;;;;;;;4.43;51.16;100980.69;5034437;28;20392;-71
2021/03/21 07:52:58;;;;;;;5.15;2.60;;;;;;;4.36;51.97;100979.41;5026405;28;20127;-71
2021/03/21 07:55:39;;;;;;;5.00;3.00;;;;;;;4.53;51.36;100980.94;5034114;28;20033;-71
2021/03/21 07:58:30;;;;;;;6.97;2.95;;;;;;;4.57;51.74;100987.66;5035083;28;20127;-70
2021/03/21 08:00:57;;;;;;;4.55;2.97;;;;;;;4.62;52.16;100988.19;5048982;28;20090;-71
2021/03/21 08:03:29;;;;;;;4.05;2.50;;;;;;;4.61;52.53;100989.13;5034646;28;20041;-70
2021/03/21 08:05:56;;;;;;;4.53;2.80;;;;;;;4.65;52.13;100990.63;5033705;28;20037;-71
2021/03/21 08:08:27;;;;;;;5.53;3.30;;;;;;;4.65;51.74;100990.63;5031533;28;20506;-70
2021/03/21 08:10:57;;;;;;;5.97;3.40;;;;;;;4.69;51.91;100994.69;5035678;28;20091;-71
2021/03/21 08:13:38;;;;;;;5.15;3.38;;;;;;;4.61;52.11;100994.38;5034959;28;20042;-71
2021/03/21 08:16:04;;;;;;;5.13;3.38;;;;;;;4.57;52.30;100988.47;5029267;28;20037;-71
2021/03/21 08:18:33;;;;;;;6.93;3.28;;;;;;;4.50;53.02;100989.00;5032479;28;20051;-71
2021/03/21 08:21:05;;;;;;;5.30;3.45;;;;;;;4.55;53.22;100992.16;5033471;28;20451;-71
2021/03/21 08:23:37;;;;;;;6.05;3.55;;;;;;;4.54;53.52;100993.94;5034448;28;20033;-70
2021/03/21 08:26:07;;;;;;;5.80;3.63;;;;;;;4.52;53.87;100985.34;5033666;28;20533;-70
2021/03/21 08:28:37;;;;;;;6.10;3.47;;;;;;;4.51;54.53;100996.75;5031912;28;20033;-71
2021/03/21 08:31:08;;;;;;;6.20;3.70;;;;;;;4.43;54.92;100991.16;5032725;28;20044;-71
2021/03/21 08:33:41;;;;;;;5.95;3.78;;;;;;;4.33;55.46;100985.69;5033884;28;20295;-70
2021/03/21 08:36:07;;;;;;;5.65;3.25;;;;;;;4.43;55.24;100996.41;5032531;28;20048;-70
2021/03/21 08:38:33;;;;;;;6.40;4.50;;;;;;;4.54;55.29;100993.94;5033661;28;20037;-70
2021/03/21 08:41:01;;;;;;;7.97;4.30;;;;;;;4.56;55.06;100992.06;5033786;28;20048;-70
2021/03/21 08:43:31;;;;;;;6.85;3.92;;;;;;;4.63;55.04;100985.47;5033113;28;20766;-70
2021/03/21 08:45:57;;;;;;;6.22;4.10;;;;;;;4.63;55.51;100982.84;5033428;28;20152;-70
2021/03/21 08:48:32;;;;;;;6.53;3.75;;;;;;;4.69;55.33;100986.81;5034355;28;20124;-70
2021/03/21 08:51:05;;;;;;;6.78;4.03;;;;;;;4.65;55.91;100982.75;5032868;28;20049;-70
2021/03/21 08:53:39;;;;;;;5.57;3.40;;;;;;;4.72;55.89;100991.88;5033910;28;20037;-70
2021/03/21 08:56:25;;;;;;;10.07;4.38;;;;;;;4.79;56.21;100990.53;5032957;28;20045;-70
2021/03/21 08:59:20;;;;;;;5.90;3.50;;;;;;;4.73;56.58;100992.72;5015044;28;20122;-71
2021/03/21 09:02:06;;;;;;;6.00;3.78;;;;;;;4.76;56.57;100992.50;5015454;28;20065;-70
2021/03/21 09:04:32;;;;;;;8.40;4.07;;;;;;;4.75;56.33;100983.81;5032676;28;20060;-71
2021/03/21 09:07:26;;;;;;;5.93;4.13;;;;;;;4.70;56.74;100983.28;5032359;28;20513;-71
2021/03/21 09:10:17;;;;;;;7.35;4.38;;;;;;;4.65;56.92;100988.00;5032124;28;20041;-70
2021/03/21 09:12:44;;;;;;;7.63;3.90;;;;;;;4.76;56.64;100971.53;5029318;28;20033;-71
2021/03/21 09:15:27;;;;;;;6.25;3.58;;;;;;;4.78;56.89;100980.97;5036678;28;20049;-70
2021/03/21 09:18:30;;;;;;;6.30;4.13;;;;;;;4.79;57.49;100976.56;5031685;28;20060;-70
2021/03/21 09:21:02;;;;;;;6.22;3.60;;;;;;;4.74;58.28;100979.50;4988357;28;20037;-70
2021/03/21 09:23:36;;;;;;;7.70;4.88;;;;;;;4.84;57.28;100980.56;5036422;28;20033;-71
2021/03/21 09:26:12;;;;;;;7.55;4.45;;;;;;;4.94;57.17;100980.78;5037908;28;20108;-70
2021/03/21 09:28:41;;;;;;;7.97;4.55;;;;;;;4.91;57.25;100986.25;5019811;28;20525;-70
2021/03/21 09:31:12;;;;;;;7.65;4.60;;;;;;;4.99;57.11;100985.72;5018102;28;20029;-70
2021/03/21 09:33:45;;;;;;;8.93;5.00;;;;;;;5.06;57.18;100976.50;5032818;28;20033;-70
2021/03/21 09:36:23;;;;;;;7.32;4.45;;;;;;;5.00;57.83;100975.13;5017326;28;20048;-70
2021/03/21 09:38:55;;;;;;;7.00;4.43;;;;;;;5.09;57.71;100973.66;5016414;28;20084;-71
2021/03/21 09:41:20;;;;;;;6.03;4.13;;;;;;;5.14;57.91;100970.72;5018490;28;20045;-70
2021/03/21 09:43:49;;;;;;;9.02;4.63;;;;;;;5.18;57.31;100978.28;5016162;28;20041;-70
2021/03/21 09:46:24;;;;;;;8.00;4.40;;;;;;;5.17;57.68;100970.50;5016570;28;20035;-71
2021/03/21 09:48:49;;;;;;;5.97;3.95;;;;;;;5.19;57.91;100966.81;5018459;28;20033;-70
2021/03/21 09:51:22;;;;;;;6.33;4.40;;;;;;;5.33;57.65;100969.31;5019909;28;20034;-70
2021/03/21 09:54:20;;;;;;;7.75;4.72;;;;;;;5.46;57.24;100963.25;5022379;28;20308;-71
2021/03/21 09:56:55;;;;;;;6.57;4.53;;;;;;;5.48;57.03;100963.94;5001291;28;20083;-70
2021/03/21 09:59:42;;;;;;;7.45;4.68;;;;;;;5.57;56.56;100955.44;5029956;28;20037;-71
2021/03/21 10:02:42;;;;;;;7.60;4.63;;;;;;;5.54;56.85;100955.66;5030579;28;20172;-71
2021/03/21 10:05:46;;;;;;;6.70;4.35;;;;;;;5.49;57.06;100963.03;5032634;28;20040;-70
2021/03/21 10:08:49;;;;;;;7.68;4.72;;;;;;;5.55;56.55;100954.69;5028630;28;20040;-71
2021/03/21 10:11:37;;;;;;;8.48;5.15;;;;;;;5.61;56.37;100946.41;5029083;28;20192;-71
2021/03/21 10:14:21;;;;;;;5.85;4.15;;;;;;;5.56;56.90;100940.66;5024814;28;20517;-70
2021/03/21 10:16:47;;;;;;;6.30;4.40;;;;;;;5.61;56.54;100945.56;5031703;28;20623;-71
2021/03/21 10:19:32;;;;;;;7.70;4.25;;;;;;;5.70;57.03;100942.31;5026712;28;20034;-70
2021/03/21 10:21:57;;;;;;;7.72;4.43;;;;;;;5.77;57.08;100932.16;5045569;23;20559;-79
2021/03/21 10:24:25;;;;;;;8.10;4.70;;;;;;;5.87;56.87;100936.66;5039388;28;20033;-80
2021/03/21 10:27:22;;;;;;;7.60;5.20;;;;;;;5.88;56.62;100935.69;5042898;28;20061;-80
2021/03/21 10:30:22;;;;;;;8.40;4.60;;;;;;;5.91;58.08;100918.88;5037597;28;20078;-80
2021/03/21 10:33:00;;;;;;;9.45;5.40;;;;;;;5.99;58.82;100921.84;5023770;28;20085;-80
2021/03/21 10:35:25;;;;;;;7.65;5.00;;;;;;;6.08;58.76;100926.41;5040291;28;20041;-81
2021/03/21 10:38:02;;;;;;;7.30;4.88;;;;;;;6.06;58.86;100928.31;5036755;28;20033;-81
2021/03/21 10:40:30;;;;;;;10.15;5.07;;;;;;;6.07;59.37;100919.47;5040997;28;20032;-82
2021/03/21 10:43:05;;;;;;;6.57;4.40;;;;;;;5.91;62.79;100925.00;5040141;28;20092;-82
2021/03/21 10:45:30;;;;;;;8.15;4.65;;;;;;;5.87;61.94;100926.16;5038374;28;20509;-82
2021/03/21 10:47:56;;;;;;;7.25;5.20;;;;;;;5.77;62.11;100921.69;5023097;28;20046;-82
2021/03/21 10:50:28;;;;;;;7.63;5.53;;;;;;;5.60;63.84;100920.28;5037508;28;20273;-82
2021/03/21 10:53:27;;;;;;;7.60;5.18;;;;;;;5.56;64.54;100916.22;5038745;28;20033;-82
2021/03/21 10:56:16;;;;;;;8.85;5.43;;;;;;;5.45;65.20;100919.59;5036161;28;20432;-80
2021/03/21 10:58:46;;;;;;;8.55;5.30;;;;;;;5.34;65.77;100925.59;5035667;28;20030;-81
2021/03/21 11:01:25;;;;;;;7.93;5.22;;;;;;;5.21;66.59;100920.38;5035213;28;20064;-82
2021/03/21 11:04:19;;;;;;;10.25;5.07;;;;;;;5.18;67.15;100923.22;5034768;28;20069;-81
2021/03/21 11:06:52;;;;;;;7.97;5.53;;;;;;;5.19;67.67;100922.25;5037784;28;20044;-80
2021/03/21 11:09:21;;;;;;;7.72;5.50;;;;;;;5.20;68.64;100920.50;5036703;28;20105;-81
2021/03/21 11:11:49;;;;;;;7.82;5.65;;;;;;;5.17;68.99;100916.28;5031003;28;20084;-80
2021/03/21 11:14:17;;;;;;;7.30;5.20;;;;;;;5.13;70.63;100925.31;5033692;28;20554;-80
2021/03/21 11:16:58;;;;;;;7.93;5.40;;;;;;;5.09;70.73;100924.69;5034411;28;20132;-80
2021/03/21 11:19:27;;;;;;;8.13;5.57;;;;;;;5.01;72.44;100931.41;5030271;28;20038;-81
2021/03/21 11:21:52;;;;;;;8.65;5.70;;;;;;;4.90;71.45;100943.47;5018779;28;20049;-81
2021/03/21 11:24:25;;;;;;;10.57;6.28;;;;;;;4.93;71.05;100944.19;5022833;28;20133;-81
2021/03/21 11:26:51;;;;;;;10.80;6.20;;;;;;;4.84;72.11;100940.44;5034432;28;20038;-79
2021/03/21 11:29:35;;;;;;;9.18;5.63;;;;;;;4.88;71.31;100934.84;5033078;28;20046;-80
2021/03/21 11:32:26;;;;;;;10.63;5.88;;;;;;;4.80;72.92;100929.31;5030647;28;20030;-82
2021/03/21 11:35:12;;;;;;;8.43;5.28;;;;;;;4.74;72.25;100934.13;5028576;28;20037;-82
2021/03/21 11:37:41;;;;;;;6.40;4.80;;;;;;;4.65;78.65;100939.06;5030255;28;20087;-83
2021/03/21 11:40:06;;;;;;;10.30;6.20;;;;;;;4.71;75.84;100940.41;5035756;28;20033;-82
2021/03/21 11:42:38;;;;;;;8.95;6.10;;;;;;;4.76;73.07;100934.88;5036889;28;20034;-83
2021/03/21 11:45:24;;;;;;;5.30;4.07;;;;;;;4.69;78.83;100929.19;5045228;28;20033;-83
2021/03/21 11:48:17;;;;;;;6.68;4.72;;;;;;;4.92;74.14;100918.94;5047270;28;20083;-82
2021/03/21 11:50:46;;;;;;;10.90;5.88;;;;;;;5.22;73.48;100916.81;5018883;28;20034;-82
2021/03/21 11:53:16;;;;;;;9.07;6.25;;;;;;;5.36;72.92;100912.38;5032349;28;20069;-82
2021/03/21 11:55:43;;;;;;;9.70;6.32;;;;;;;5.47;72.02;100915.06;5028966;28;20041;-82
2021/03/21 11:58:30;;;;;;;9.55;6.43;;;;;;;5.55;71.04;100902.25;5034084;28;20511;-82
2021/03/21 12:01:11;;;;;;;9.00;6.45;;;;;;;5.58;70.74;100901.19;5039052;28;20030;-82
2021/03/21 12:03:51;;;;;;;8.38;5.88;;;;;;;5.77;70.61;100893.69;5038335;28;20049;-82
2021/03/21 12:06:34;;;;;;;10.20;5.97;;;;;;;5.92;70.96;100895.16;5034283;28;20048;-82
2021/03/21 12:09:12;;;;;;;9.68;5.85;;;;;;;6.14;69.58;100894.44;5038183;28;20265;-82
2021/03/21 12:11:46;;;;;;;9.88;5.93;;;;;;;6.21;70.36;100896.63;5022119;28;20034;-81
2021/03/21 12:14:36;;;;;;;7.55;5.70;;;;;;;6.32;68.91;100891.41;5031810;28;20520;-82
2021/03/21 12:17:24;;;;;;;10.02;5.57;;;;;;;6.41;68.74;100895.94;5031507;28;20040;-83
2021/03/21 12:19:51;;;;;;;8.50;5.85;;;;;;;6.41;68.67;100895.13;5039760;28;20064;-83
2021/03/21 12:22:34;;;;;;;8.68;5.95;;;;;;;6.50;68.18;100895.25;5036467;28;20062;-83